createdAt,value
2023-12-10T00:01:55.941Z,20.25
2023-12-10T00:04:25.467Z,21.05
2023-12-10T00:06:54.042Z,16.77
2023-12-10T00:09:20.840Z,20.08
2023-12-10T00:11:47.580Z,18.58
2023-12-10T00:14:14.346Z,20.33
2023-12-10T00:16:41.069Z,16.90
2023-12-10T00:19:07.863Z,14.70
2023-12-10T00:21:34.848Z,13.23
2023-12-10T00:24:01.628Z,10.32
2023-12-10T00:26:28.409Z,10.65
2023-12-10T00:28:55.137Z,9.45
2023-12-10T00:31:21.861Z,11.43
2023-12-10T00:33:49.085Z,6.43
2023-12-10T00:36:16.499Z,7.55
2023-12-10T00:38:43.588Z,7.78
2023-12-10T00:41:11.999Z,6.97
2023-12-10T00:43:42.529Z,7.80
2023-12-10T00:46:10.014Z,10.57
2023-12-10T00:48:38.608Z,5.35
2023-12-10T00:51:05.580Z,7.72
2023-12-10T00:53:32.352Z,7.97
2023-12-10T00:55:59.188Z,5.20
2023-12-10T00:58:25.920Z,12.88
2023-12-10T01:00:52.811Z,5.13
2023-12-10T01:03:19.723Z,7.32
2023-12-10T01:05:46.494Z,8.18
2023-12-10T01:08:13.275Z,4.28
2023-12-10T01:10:40.003Z,10.00
2023-12-10T01:13:06.728Z,11.40
2023-12-10T01:15:33.520Z,5.63
2023-12-10T01:18:03.965Z,11.32
2023-12-10T01:20:34.810Z,7.72
2023-12-10T01:23:08.778Z,7.85
2023-12-10T01:25:35.985Z,6.72
2023-12-10T01:28:03.165Z,7.32
2023-12-10T01:30:30.593Z,15.13
2023-12-10T01:33:01.154Z,7.80
2023-12-10T01:35:28.567Z,9.75
2023-12-10T01:37:55.644Z,11.43
2023-12-10T01:40:22.563Z,15.68
2023-12-10T01:42:49.715Z,10.55
2023-12-10T01:45:17.789Z,11.40
2023-12-10T01:47:46.770Z,11.88
2023-12-10T01:50:14.495Z,17.33
2023-12-10T01:52:42.664Z,14.57
2023-12-10T01:55:10.893Z,12.52
2023-12-10T01:57:38.235Z,16.33
2023-12-10T02:00:07.203Z,16.77
2023-12-10T02:02:35.066Z,17.55
2023-12-10T02:05:11.279Z,17.00
2023-12-10T02:07:38.763Z,13.10
2023-12-10T02:10:07.191Z,23.00
2023-12-10T02:12:36.135Z,20.27
2023-12-10T02:15:19.484Z,15.32
2023-12-10T02:17:47.849Z,20.95
2023-12-10T02:20:15.754Z,20.20
2023-12-10T02:23:05.406Z,13.32
2023-12-10T02:25:36.854Z,23.77
2023-12-10T02:28:04.692Z,17.83
2023-12-10T02:30:31.926Z,12.15
2023-12-10T02:32:59.080Z,17.50
2023-12-10T02:35:27.427Z,21.23
2023-12-10T02:37:54.836Z,22.05
2023-12-10T02:40:21.833Z,23.35
2023-12-10T02:42:49.157Z,22.30
2023-12-10T02:45:16.493Z,26.13
2023-12-10T02:47:43.615Z,22.17
2023-12-10T02:50:10.571Z,24.17
2023-12-10T02:52:38.022Z,31.95
2023-12-10T02:55:05.883Z,24.48
2023-12-10T02:57:32.787Z,25.77
2023-12-10T03:00:00.056Z,27.98
2023-12-10T03:02:27.032Z,24.58
2023-12-10T03:04:54.346Z,23.10
2023-12-10T03:07:21.225Z,31.50
2023-12-10T03:09:48.023Z,26.35
2023-12-10T03:12:14.998Z,30.52
2023-12-10T03:14:41.891Z,25.73
2023-12-10T03:17:08.608Z,22.05
2023-12-10T03:19:35.598Z,34.10
2023-12-10T03:22:02.390Z,27.27
2023-12-10T03:24:29.132Z,31.98
2023-12-10T03:26:55.872Z,35.88
2023-12-10T03:29:22.637Z,27.92
2023-12-10T03:31:49.410Z,27.23
2023-12-10T03:34:16.347Z,22.15
2023-12-10T03:36:43.160Z,32.17
2023-12-10T03:39:09.998Z,37.80
2023-12-10T03:41:36.733Z,22.48
2023-12-10T03:44:03.463Z,23.83
2023-12-10T03:46:30.246Z,38.47
2023-12-10T03:48:57.163Z,32.63
2023-12-10T03:51:24.036Z,32.55
2023-12-10T03:53:51.674Z,31.08
2023-12-10T03:56:18.382Z,21.35
2023-12-10T03:58:45.112Z,31.33
2023-12-10T04:01:11.899Z,34.95
2023-12-10T04:03:38.987Z,25.42
2023-12-10T04:06:06.072Z,32.88
2023-12-10T04:08:32.800Z,29.98
2023-12-10T04:10:59.867Z,26.85
2023-12-10T04:13:26.614Z,35.30
2023-12-10T04:15:53.339Z,28.17
2023-12-10T04:18:20.210Z,36.00
2023-12-10T04:20:47.120Z,25.30
2023-12-10T04:23:13.925Z,30.27
2023-12-10T04:25:40.660Z,42.05
2023-12-10T04:28:08.249Z,26.73
2023-12-10T04:30:35.324Z,36.58
2023-12-10T04:33:02.324Z,28.15
2023-12-10T04:35:29.105Z,29.65
2023-12-10T04:37:55.839Z,35.40
2023-12-10T04:40:23.506Z,33.95
2023-12-10T04:42:50.440Z,37.38
2023-12-10T04:45:18.172Z,33.08
2023-12-10T04:47:45.117Z,42.45
2023-12-10T04:50:12.435Z,27.80
2023-12-10T04:52:39.182Z,33.03
2023-12-10T04:55:06.361Z,34.78
2023-12-10T04:57:33.133Z,35.20
2023-12-10T04:59:59.861Z,36.67
2023-12-10T05:02:26.812Z,36.55
2023-12-10T05:04:53.652Z,30.20
2023-12-10T05:07:20.738Z,34.33
2023-12-10T05:09:47.577Z,37.40
2023-12-10T05:12:14.423Z,30.75
2023-12-10T05:14:41.212Z,23.08
2023-12-10T05:17:07.913Z,30.95
2023-12-10T05:19:34.822Z,35.00
2023-12-10T05:22:01.700Z,28.90
2023-12-10T05:24:28.603Z,32.67
2023-12-10T05:26:55.367Z,28.17
2023-12-10T05:29:22.175Z,26.50
2023-12-10T05:31:48.994Z,27.10
2023-12-10T05:34:15.796Z,25.38
2023-12-10T05:36:42.614Z,29.20
2023-12-10T05:39:09.648Z,30.98
2023-12-10T05:41:36.436Z,21.15
2023-12-10T05:44:03.439Z,28.50
2023-12-10T05:46:30.173Z,29.00
2023-12-10T05:48:57.199Z,20.85
2023-12-10T05:51:24.029Z,21.15
2023-12-10T05:53:52.302Z,20.90
2023-12-10T05:56:19.159Z,23.45
2023-12-10T05:58:46.239Z,23.52
2023-12-10T06:01:13.028Z,18.50
2023-12-10T06:03:39.865Z,21.67
2023-12-10T06:06:07.005Z,22.67
2023-12-10T06:08:33.785Z,18.42
2023-12-10T06:11:00.860Z,20.75
2023-12-10T06:13:28.339Z,27.33
2023-12-10T06:15:58.894Z,22.13
2023-12-10T06:18:25.937Z,20.35
2023-12-10T06:20:52.717Z,16.48
2023-12-10T06:23:19.495Z,26.85
2023-12-10T06:25:46.202Z,15.90
2023-12-10T06:28:13.613Z,20.58
2023-12-10T06:30:40.478Z,17.02
2023-12-10T06:33:07.321Z,18.30
2023-12-10T06:35:34.195Z,17.48
2023-12-10T06:38:00.952Z,16.02
2023-12-10T06:40:27.679Z,20.85
2023-12-10T06:42:54.421Z,14.73
2023-12-10T06:45:21.341Z,17.55
2023-12-10T06:47:48.199Z,18.80
2023-12-10T06:50:14.991Z,16.13
2023-12-10T06:52:41.728Z,21.65
2023-12-10T06:55:09.012Z,15.23
2023-12-10T06:57:35.857Z,17.00
2023-12-10T07:00:02.820Z,21.67
2023-12-10T07:02:30.156Z,23.08
2023-12-10T07:04:57.127Z,14.30
2023-12-10T07:07:23.860Z,22.92
2023-12-10T07:09:50.691Z,13.35
2023-12-10T07:12:17.496Z,15.38
2023-12-10T07:14:44.307Z,18.27
2023-12-10T07:17:11.039Z,15.50
2023-12-10T07:19:37.941Z,19.77
2023-12-10T07:22:04.838Z,17.17
2023-12-10T07:24:32.714Z,24.80
2023-12-10T07:26:59.619Z,16.15
2023-12-10T07:29:27.247Z,17.67
2023-12-10T07:31:54.001Z,16.60
2023-12-10T07:34:21.482Z,17.48
2023-12-10T07:36:48.317Z,19.08
2023-12-10T07:39:15.217Z,19.40
2023-12-10T07:41:42.566Z,20.08
2023-12-10T07:44:09.305Z,18.30
2023-12-10T07:46:36.038Z,18.70
2023-12-10T07:49:02.869Z,18.48
2023-12-10T07:51:29.737Z,18.40
2023-12-10T07:53:56.435Z,15.27
2023-12-10T07:56:23.214Z,19.52
2023-12-10T07:58:49.972Z,18.38
2023-12-10T08:01:16.904Z,21.42
2023-12-10T08:03:43.820Z,27.17
2023-12-10T08:06:10.581Z,20.95
2023-12-10T08:08:37.331Z,19.67
2023-12-10T08:11:06.652Z,26.30
2023-12-10T08:13:33.585Z,27.13
2023-12-10T08:16:00.446Z,31.40
2023-12-10T08:18:27.363Z,23.25
2023-12-10T08:20:55.373Z,20.90
2023-12-10T08:23:22.107Z,24.33
2023-12-10T08:25:48.869Z,27.88
2023-12-10T08:28:15.785Z,24.23
2023-12-10T08:30:42.573Z,29.75
2023-12-10T08:33:09.503Z,22.92
2023-12-10T08:35:36.288Z,17.63
2023-12-10T08:38:03.017Z,25.52
2023-12-10T08:40:29.779Z,24.27
2023-12-10T08:42:56.545Z,28.70
2023-12-10T08:45:23.696Z,17.95
2023-12-10T08:47:50.574Z,22.15
2023-12-10T08:50:17.716Z,24.67
2023-12-10T08:52:44.439Z,28.83
2023-12-10T08:55:11.306Z,23.02
2023-12-10T08:57:38.161Z,20.25
2023-12-10T09:00:05.581Z,27.70
2023-12-10T09:02:32.741Z,19.92
2023-12-10T09:04:59.572Z,22.77
2023-12-10T09:07:27.390Z,19.45
2023-12-10T09:10:01.976Z,21.95
2023-12-10T09:12:33.198Z,22.30
2023-12-10T09:15:00.209Z,19.38
2023-12-10T09:17:27.070Z,18.15
2023-12-10T09:19:53.873Z,19.92
2023-12-10T09:22:22.318Z,22.33
2023-12-10T09:24:50.540Z,25.38
2023-12-10T09:27:17.485Z,21.10
2023-12-10T09:29:45.874Z,19.85
2023-12-10T09:32:13.918Z,18.55
2023-12-10T09:34:41.731Z,31.98
2023-12-10T09:37:11.752Z,17.45
2023-12-10T09:39:38.880Z,19.90
2023-12-10T09:42:05.841Z,18.33
2023-12-10T09:44:33.166Z,29.92
2023-12-10T09:47:01.690Z,20.92
2023-12-10T09:49:29.380Z,22.63
2023-12-10T09:51:56.473Z,25.13
2023-12-10T09:54:27.478Z,22.48
2023-12-10T09:56:55.725Z,22.30
2023-12-10T09:59:22.513Z,21.13
2023-12-10T10:01:51.206Z,21.65
2023-12-10T10:04:18.706Z,23.25
2023-12-10T10:06:45.743Z,16.63
2023-12-10T10:09:21.223Z,19.13
2023-12-10T10:11:56.002Z,15.52
2023-12-10T10:14:22.749Z,17.92
2023-12-10T10:16:50.165Z,20.45
2023-12-10T10:19:17.646Z,20.23
2023-12-10T10:21:45.438Z,24.35
2023-12-10T10:24:14.148Z,17.38
2023-12-10T10:26:41.889Z,16.13
2023-12-10T10:29:09.270Z,21.23
2023-12-10T10:31:36.406Z,14.25
2023-12-10T10:34:07.305Z,20.15
2023-12-10T10:36:34.348Z,21.38
2023-12-10T10:39:01.137Z,15.73
2023-12-10T10:41:28.225Z,18.58
2023-12-10T10:43:57.503Z,18.50
2023-12-10T10:46:25.447Z,18.83
2023-12-10T10:48:54.127Z,22.75
2023-12-10T10:51:27.536Z,16.13
2023-12-10T10:53:59.348Z,18.55
2023-12-10T10:56:26.913Z,19.35
2023-12-10T10:58:53.682Z,18.42
2023-12-10T11:01:40.531Z,14.85
2023-12-10T11:04:09.365Z,14.02
2023-12-10T11:06:37.289Z,17.65
2023-12-10T11:09:04.137Z,17.35
2023-12-10T11:11:39.155Z,14.88
2023-12-10T11:14:23.412Z,14.27
2023-12-10T11:17:02.718Z,18.77
2023-12-10T11:19:30.210Z,26.70
2023-12-10T11:21:57.991Z,20.02
2023-12-10T11:24:24.832Z,8.15
2023-12-10T11:26:51.796Z,28.08
2023-12-10T11:29:18.658Z,19.55
2023-12-10T11:31:45.916Z,10.85
2023-12-10T11:34:13.189Z,17.92
2023-12-10T11:36:46.907Z,16.45
2023-12-10T11:39:17.406Z,15.82
2023-12-10T11:41:55.638Z,19.60
2023-12-10T11:44:28.206Z,22.83
2023-12-10T11:46:58.045Z,12.55
2023-12-10T11:49:25.750Z,25.52
2023-12-10T11:51:53.215Z,16.75
2023-12-10T11:54:21.537Z,19.10
2023-12-10T11:56:48.452Z,18.55
2023-12-10T11:59:16.972Z,19.38
2023-12-10T12:01:47.123Z,15.90
2023-12-10T12:04:14.099Z,18.90
2023-12-10T12:06:42.753Z,26.67
2023-12-10T12:09:16.078Z,20.00
2023-12-10T12:11:42.890Z,15.55
2023-12-10T12:14:20.227Z,16.40
2023-12-10T12:16:47.881Z,20.42
2023-12-10T12:19:28.157Z,19.80
2023-12-10T12:21:58.773Z,23.52
2023-12-10T12:24:25.700Z,15.10
2023-12-10T12:26:52.963Z,19.80
2023-12-10T12:29:19.708Z,14.02
2023-12-10T12:32:04.778Z,21.65
2023-12-10T12:37:00.123Z,17.42
2023-12-10T12:39:26.982Z,16.13
2023-12-10T12:41:53.850Z,15.98
2023-12-10T12:44:20.631Z,16.10
2023-12-10T12:46:48.481Z,14.00
2023-12-10T12:49:16.384Z,20.17
2023-12-10T12:51:43.233Z,16.63
2023-12-10T12:54:13.614Z,17.10
2023-12-10T12:56:45.474Z,17.88
2023-12-10T12:59:14.438Z,15.52
2023-12-10T13:01:42.818Z,16.63
2023-12-10T13:04:09.905Z,17.13
2023-12-10T13:06:37.070Z,20.63
2023-12-10T13:09:03.965Z,18.00
2023-12-10T13:11:30.709Z,16.25
2023-12-10T13:13:57.456Z,13.45
2023-12-10T13:16:24.184Z,13.85
2023-12-10T13:18:51.070Z,20.00
2023-12-10T13:21:18.720Z,12.93
2023-12-10T13:23:46.526Z,16.85
2023-12-10T13:26:13.333Z,19.58
2023-12-10T13:28:40.079Z,14.38
2023-12-10T13:31:06.890Z,16.55
2023-12-10T13:33:34.366Z,14.13
2023-12-10T13:36:01.326Z,19.92
2023-12-10T13:38:28.085Z,14.10
2023-12-10T13:40:57.279Z,15.43
2023-12-10T13:43:24.189Z,18.02
2023-12-10T13:45:50.947Z,18.77
2023-12-10T13:48:17.744Z,14.10
2023-12-10T13:50:44.553Z,15.20
2023-12-10T13:53:11.290Z,19.02
2023-12-10T13:55:38.057Z,15.07
2023-12-10T13:58:04.947Z,19.38
2023-12-10T14:00:32.454Z,19.38
2023-12-10T14:02:59.283Z,16.02
2023-12-10T14:05:26.095Z,13.60
2023-12-10T14:07:52.996Z,13.48
2023-12-10T14:10:19.972Z,17.42
2023-12-10T14:12:47.266Z,20.30
2023-12-10T14:15:14.339Z,20.35
2023-12-10T14:17:41.235Z,17.08
2023-12-10T14:20:08.533Z,13.18
2023-12-10T14:22:35.364Z,13.57
2023-12-10T14:25:02.437Z,18.92
2023-12-10T14:27:29.555Z,14.45
2023-12-10T14:29:56.721Z,19.90
2023-12-10T14:32:23.518Z,17.05
2023-12-10T14:34:50.362Z,23.15
2023-12-10T14:37:17.091Z,25.83
2023-12-10T14:39:43.878Z,20.55
2023-12-10T14:42:10.724Z,19.25
2023-12-10T14:44:37.539Z,36.47
2023-12-10T14:47:04.452Z,37.25
2023-12-10T14:49:31.563Z,21.88
2023-12-10T14:51:58.435Z,29.33
2023-12-10T14:54:26.057Z,20.15
2023-12-10T14:56:53.074Z,17.73
2023-12-10T14:59:20.287Z,20.00
2023-12-10T15:01:58.739Z,30.90
2023-12-10T15:04:33.123Z,17.35
2023-12-10T15:07:00.049Z,20.15
2023-12-10T15:09:27.042Z,19.90
2023-12-10T15:11:53.860Z,77.75
2023-12-10T15:14:20.598Z,25.38
2023-12-10T15:16:47.342Z,21.33
2023-12-10T15:19:14.416Z,23.88
2023-12-10T15:21:41.324Z,18.30
2023-12-10T15:24:08.084Z,19.08
2023-12-10T15:26:34.864Z,13.73
2023-12-10T15:29:02.210Z,26.08
2023-12-10T15:31:29.058Z,25.00
2023-12-10T15:33:55.932Z,17.40
2023-12-10T15:36:23.285Z,23.77
2023-12-10T15:38:50.182Z,22.48
2023-12-10T15:41:17.175Z,23.67
2023-12-10T15:43:44.205Z,18.98
2023-12-10T15:46:11.158Z,22.73
2023-12-10T15:48:38.210Z,22.42
2023-12-10T15:51:05.326Z,16.08
2023-12-10T15:53:32.305Z,25.30
2023-12-10T15:55:59.009Z,16.25
2023-12-10T15:58:25.775Z,22.83
2023-12-10T16:00:54.615Z,15.10
2023-12-10T16:03:23.552Z,28.02
2023-12-10T16:05:51.371Z,17.90
2023-12-10T16:08:19.103Z,22.65
2023-12-10T16:10:46.690Z,20.95
2023-12-10T16:13:18.067Z,18.88
2023-12-10T16:15:47.254Z,20.15
2023-12-10T16:18:14.098Z,14.18
2023-12-10T16:20:41.398Z,14.10
2023-12-10T16:23:08.237Z,17.42
2023-12-10T16:25:35.627Z,27.10
2023-12-10T16:28:02.927Z,22.33
2023-12-10T16:30:29.869Z,18.30
2023-12-10T16:32:56.752Z,31.90
2023-12-10T16:35:23.604Z,18.58
2023-12-10T16:37:50.416Z,15.57
2023-12-10T16:40:17.378Z,20.40
2023-12-10T16:42:44.284Z,24.50
2023-12-10T16:45:11.257Z,20.98
2023-12-10T16:47:38.824Z,28.05
2023-12-10T16:50:08.460Z,33.05
2023-12-10T16:52:40.601Z,18.17
2023-12-10T16:55:10.956Z,25.88
2023-12-10T16:57:39.466Z,27.05
2023-12-10T17:00:06.859Z,24.35
2023-12-10T17:02:33.572Z,24.83
2023-12-10T17:05:02.474Z,23.42
2023-12-10T17:07:29.688Z,23.73
2023-12-10T17:09:56.691Z,21.55
2023-12-10T17:12:23.545Z,23.83
2023-12-10T17:14:50.404Z,19.70
2023-12-10T17:17:17.297Z,15.43
2023-12-10T17:19:44.106Z,21.38
2023-12-10T17:22:11.373Z,22.20
2023-12-10T17:24:38.546Z,19.70
2023-12-10T17:27:05.537Z,21.45
2023-12-10T17:29:32.305Z,18.08
2023-12-10T17:31:59.038Z,24.40
2023-12-10T17:34:25.873Z,21.52
2023-12-10T17:36:52.712Z,17.10
2023-12-10T17:39:19.450Z,20.63
2023-12-10T17:41:46.185Z,20.73
2023-12-10T17:44:12.944Z,23.92
2023-12-10T17:46:39.732Z,23.80
2023-12-10T17:49:07.155Z,26.48
2023-12-10T17:51:34.164Z,17.67
2023-12-10T17:54:00.964Z,29.20
2023-12-10T17:56:27.713Z,26.55
2023-12-10T17:58:54.796Z,13.70
2023-12-10T18:01:21.922Z,18.33
2023-12-10T18:03:48.929Z,15.95
2023-12-10T18:06:15.816Z,21.83
2023-12-10T18:08:42.561Z,23.65
2023-12-10T18:11:09.338Z,26.35
2023-12-10T18:13:37.922Z,23.05
2023-12-10T18:16:06.108Z,24.42
2023-12-10T18:18:33.051Z,19.48
2023-12-10T18:21:01.671Z,22.20
2023-12-10T18:23:28.449Z,10.52
2023-12-10T18:25:55.160Z,18.83
2023-12-10T18:28:21.954Z,22.13
2023-12-10T18:30:48.706Z,20.30
2023-12-10T18:33:16.214Z,18.08
2023-12-10T18:35:43.049Z,18.60
2023-12-10T18:38:09.829Z,18.40
2023-12-10T18:40:36.591Z,19.52
2023-12-10T18:43:06.079Z,24.52
2023-12-10T18:45:34.339Z,18.40
2023-12-10T18:48:01.239Z,19.52
2023-12-10T18:50:28.124Z,20.27
2023-12-10T18:52:54.950Z,30.83
2023-12-10T18:55:22.032Z,23.45
2023-12-10T18:57:48.772Z,23.65
2023-12-10T19:00:16.114Z,30.33
2023-12-10T19:02:42.957Z,24.30
2023-12-10T19:05:09.866Z,21.17
2023-12-10T19:07:36.708Z,19.92
2023-12-10T19:10:03.656Z,18.13
2023-12-10T19:12:30.965Z,23.98
2023-12-10T19:14:57.954Z,25.23
2023-12-10T19:17:24.805Z,23.52
2023-12-10T19:19:51.757Z,16.42
2023-12-10T19:22:18.511Z,22.35
2023-12-10T19:24:45.633Z,25.33
2023-12-10T19:27:12.692Z,21.67
2023-12-10T19:29:39.502Z,22.50
2023-12-10T19:32:07.973Z,14.23
2023-12-10T19:34:35.645Z,24.08
2023-12-10T19:37:02.586Z,22.85
2023-12-10T19:39:29.388Z,12.82
2023-12-10T19:41:56.292Z,24.77
2023-12-10T19:44:23.065Z,15.52
2023-12-10T19:46:49.987Z,23.33
2023-12-10T19:49:17.856Z,22.45
2023-12-10T19:51:44.779Z,18.60
2023-12-10T19:54:11.643Z,24.83
2023-12-10T19:56:38.433Z,18.65
2023-12-10T19:59:05.225Z,19.30
2023-12-10T20:01:32.041Z,20.67
2023-12-10T20:04:00.622Z,24.05
2023-12-10T20:06:27.417Z,17.85
2023-12-10T20:08:54.311Z,19.38
2023-12-10T20:11:21.021Z,13.82
2023-12-10T20:13:48.388Z,21.52
2023-12-10T20:16:17.695Z,24.48
2023-12-10T20:18:45.424Z,16.38
2023-12-10T20:21:12.259Z,14.27
2023-12-10T20:23:38.947Z,17.65
2023-12-10T20:26:05.785Z,16.85
2023-12-10T20:28:32.540Z,17.02
2023-12-10T20:30:59.299Z,13.73
2023-12-10T20:33:27.266Z,16.58
2023-12-10T20:35:54.201Z,21.30
2023-12-10T20:38:21.075Z,16.83
2023-12-10T20:40:49.930Z,11.85
2023-12-10T20:43:18.210Z,15.60
2023-12-10T20:45:46.181Z,14.45
2023-12-10T20:48:13.324Z,19.13
2023-12-10T20:50:40.157Z,11.07
2023-12-10T20:53:06.963Z,20.08
2023-12-10T20:55:33.744Z,15.23
2023-12-10T20:58:00.665Z,14.48
2023-12-10T21:00:27.604Z,20.55
2023-12-10T21:02:54.447Z,13.25
2023-12-10T21:05:22.966Z,12.88
2023-12-10T21:07:49.974Z,13.75
2023-12-10T21:10:16.976Z,13.20
2023-12-10T21:12:43.920Z,10.93
2023-12-10T21:15:11.040Z,16.63
2023-12-10T21:17:38.889Z,19.10
2023-12-10T21:20:07.537Z,19.80
2023-12-10T21:22:34.321Z,15.57
2023-12-10T21:25:01.492Z,12.52
2023-12-10T21:27:28.553Z,19.88
2023-12-10T21:29:55.508Z,15.95
2023-12-10T21:32:22.244Z,13.93
2023-12-10T21:34:49.538Z,13.07
2023-12-10T21:37:16.832Z,12.27
2023-12-10T21:39:43.697Z,18.85
2023-12-10T21:42:12.149Z,14.32
2023-12-10T21:44:41.698Z,12.35
2023-12-10T21:47:08.473Z,9.50
2023-12-10T21:49:39.273Z,14.10
2023-12-10T21:52:06.748Z,12.40
2023-12-10T21:54:33.801Z,12.93
2023-12-10T21:57:01.159Z,12.20
2023-12-10T21:59:28.100Z,13.82
2023-12-10T22:01:55.360Z,16.40
2023-12-10T22:04:22.371Z,12.77
2023-12-10T22:06:49.218Z,12.00
2023-12-10T22:09:15.933Z,9.15
2023-12-10T22:11:42.696Z,7.90
2023-12-10T22:14:09.402Z,12.82
2023-12-10T22:16:37.055Z,16.27
2023-12-10T22:19:04.607Z,13.35
2023-12-10T22:21:31.448Z,9.88
2023-12-10T22:23:58.806Z,15.02
2023-12-10T22:26:25.534Z,11.57
2023-12-10T22:28:52.387Z,8.30
2023-12-10T22:31:19.174Z,18.75
2023-12-10T22:33:46.049Z,14.10
2023-12-10T22:36:12.873Z,13.85
2023-12-10T22:38:43.432Z,18.30
2023-12-10T22:41:10.435Z,13.32
2023-12-10T22:43:37.257Z,11.82
2023-12-10T22:46:04.256Z,17.17
2023-12-10T22:48:31.110Z,21.05
2023-12-10T22:50:58.101Z,13.70
2023-12-10T22:53:25.018Z,19.25
2023-12-10T22:55:52.237Z,19.25
2023-12-10T22:58:19.077Z,13.32
2023-12-10T23:00:45.898Z,12.77
2023-12-10T23:03:12.797Z,11.13
2023-12-10T23:05:39.550Z,12.25
2023-12-10T23:08:06.432Z,8.35
2023-12-10T23:10:33.221Z,13.63
2023-12-10T23:12:59.996Z,13.70
2023-12-10T23:15:30.731Z,10.38
2023-12-10T23:17:57.547Z,7.75
2023-12-10T23:20:24.361Z,11.20
2023-12-10T23:22:51.126Z,10.85
2023-12-10T23:25:18.048Z,11.55
2023-12-10T23:27:44.926Z,9.85
2023-12-10T23:30:12.072Z,11.25
2023-12-10T23:32:38.892Z,9.10
2023-12-10T23:35:05.999Z,9.18
2023-12-10T23:37:32.850Z,12.45
2023-12-10T23:39:59.966Z,9.52
2023-12-10T23:42:26.781Z,8.63
2023-12-10T23:44:53.911Z,11.50
2023-12-10T23:47:20.659Z,10.68
2023-12-10T23:49:47.445Z,12.68
2023-12-10T23:52:14.234Z,9.98
2023-12-10T23:54:41.111Z,9.32
2023-12-10T23:57:08.694Z,7.72
2023-12-10T23:59:35.795Z,12.82
